sensor_id;sensor_type;location;lat;lon;timestamp;noise_LAeq;noise_LA_min;noise_LA_max;noise_LA01;noise_LA95
43787;Laerm;29409;49.306;8.500;2023-07-24T00:00:43;42.87;41.38;44.11;;
43787;Laerm;29409;49.306;8.500;2023-07-24T00:01:43;43.07;40.62;45.54;;
43787;Laerm;29409;49.306;8.500;2023-07-24T00:02:44;42.39;40.71;43.72;;
43787;Laerm;29409;49.306;8.500;2023-07-24T00:03:44;42.38;40.71;44.15;;
43787;Laerm;29409;49.306;8.500;2023-07-24T00:04:44;42.37;40.71;43.58;;
43787;Laerm;29409;49.306;8.500;2023-07-24T00:05:45;42.68;40.80;45.04;;
43787;Laerm;29409;49.306;8.500;2023-07-24T00:06:45;42.23;38.37;44.90;;
43787;Laerm;29409;49.306;8.500;2023-07-24T00:07:45;41.21;35.94;48.40;;
43787;Laerm;29409;49.306;8.500;2023-07-24T00:08:45;39.97;32.93;42.35;;
43787;Laerm;29409;49.306;8.500;2023-07-24T00:09:46;39.77;35.94;42.35;;
43787;Laerm;29409;49.306;8.500;2023-07-24T00:10:46;39.62;35.04;42.41;;
43787;Laerm;29409;49.306;8.500;2023-07-24T00:11:47;39.66;35.94;41.82;;
43787;Laerm;29409;49.306;8.500;2023-07-24T00:12:47;39.61;35.36;41.89;;
43787;Laerm;29409;49.306;8.500;2023-07-24T00:13:48;39.89;35.04;44.65;;
43787;Laerm;29409;49.306;8.500;2023-07-24T00:14:48;39.42;33.44;42.35;;
43787;Laerm;29409;49.306;8.500;2023-07-24T00:15:48;39.38;34.69;42.13;;
43787;Laerm;29409;49.306;8.500;2023-07-24T00:16:50;39.50;34.69;42.22;;
43787;Laerm;29409;49.306;8.500;2023-07-24T00:17:50;39.87;36.20;42.22;;
43787;Laerm;29409;49.306;8.500;2023-07-24T00:18:50;39.91;34.69;42.22;;
43787;Laerm;29409;49.306;8.500;2023-07-24T00:19:51;39.17;33.90;41.89;;
43787;Laerm;29409;49.306;8.500;2023-07-24T00:20:51;40.05;36.20;42.76;;
43787;Laerm;29409;49.306;8.500;2023-07-24T00:21:51;40.02;33.90;42.71;;
43787;Laerm;29409;49.306;8.500;2023-07-24T00:22:51;39.69;33.90;42.29;;
43787;Laerm;29409;49.306;8.500;2023-07-24T00:23:52;39.35;33.44;41.75;;
43787;Laerm;29409;49.306;8.500;2023-07-24T00:24:52;39.22;31.68;41.94;;
43787;Laerm;29409;49.306;8.500;2023-07-24T00:25:52;39.18;35.31;41.68;;
43787;Laerm;29409;49.306;8.500;2023-07-24T00:26:53;38.91;34.69;41.82;;
43787;Laerm;29409;49.306;8.500;2023-07-24T00:27:54;39.04;31.68;41.68;;
43787;Laerm;29409;49.306;8.500;2023-07-24T00:28:54;39.06;32.93;41.61;;
43787;Laerm;29409;49.306;8.500;2023-07-24T00:29:54;39.68;32.35;42.22;;
43787;Laerm;29409;49.306;8.500;2023-07-24T00:30:54;39.73;34.31;42.82;;
43787;Laerm;29409;49.306;8.500;2023-07-24T00:31:56;39.46;35.01;43.49;;
43787;Laerm;29409;49.306;8.500;2023-07-24T00:32:56;39.03;32.35;41.53;;
43787;Laerm;29409;49.306;8.500;2023-07-24T00:33:56;39.24;34.69;42.82;;
43787;Laerm;29409;49.306;8.500;2023-07-24T00:35:00;39.10;33.44;41.82;;
43787;Laerm;29409;49.306;8.500;2023-07-24T00:36:00;39.34;35.04;41.94;;
43787;Laerm;29409;49.306;8.500;2023-07-24T00:37:00;40.24;36.45;45.60;;
43787;Laerm;29409;49.306;8.500;2023-07-24T00:38:00;39.59;35.86;42.71;;
43787;Laerm;29409;49.306;8.500;2023-07-24T00:39:01;39.10;35.36;41.61;;
43787;Laerm;29409;49.306;8.500;2023-07-24T00:40:01;39.15;35.66;41.61;;
43787;Laerm;29409;49.306;8.500;2023-07-24T00:41:02;39.79;33.90;42.53;;
43787;Laerm;29409;49.306;8.500;2023-07-24T00:42:02;39.51;33.90;42.22;;
43787;Laerm;29409;49.306;8.500;2023-07-24T00:43:03;38.99;35.04;41.75;;
43787;Laerm;29409;49.306;8.500;2023-07-24T00:44:03;40.80;36.45;44.47;;
43787;Laerm;29409;49.306;8.500;2023-07-24T00:45:04;39.93;36.20;42.16;;
43787;Laerm;29409;49.306;8.500;2023-07-24T00:46:04;39.73;35.66;42.65;;
43787;Laerm;29409;49.306;8.500;2023-07-24T00:47:05;40.98;36.20;44.03;;
43787;Laerm;29409;49.306;8.500;2023-07-24T00:48:05;41.12;37.52;43.58;;
43787;Laerm;29409;49.306;8.500;2023-07-24T00:49:05;40.50;36.20;43.19;;
43787;Laerm;29409;49.306;8.500;2023-07-24T00:50:06;40.19;35.66;42.71;;
43787;Laerm;29409;49.306;8.500;2023-07-24T00:51:07;39.73;35.36;42.29;;
43787;Laerm;29409;49.306;8.500;2023-07-24T00:52:07;40.11;36.45;42.82;;
43787;Laerm;29409;49.306;8.500;2023-07-24T00:53:08;39.90;36.20;42.65;;
43787;Laerm;29409;49.306;8.500;2023-07-24T00:54:08;39.37;35.66;41.75;;
43787;Laerm;29409;49.306;8.500;2023-07-24T00:55:09;39.36;35.04;42.09;;
43787;Laerm;29409;49.306;8.500;2023-07-24T00:56:10;39.10;35.04;41.75;;
43787;Laerm;29409;49.306;8.500;2023-07-24T00:57:11;39.73;36.20;42.76;;
43787;Laerm;29409;49.306;8.500;2023-07-24T00:58:11;43.97;35.66;74.25;;
43787;Laerm;29409;49.306;8.500;2023-07-24T00:59:12;39.51;35.66;42.13;;
43787;Laerm;29409;49.306;8.500;2023-07-24T01:00:12;39.44;35.04;41.61;;
43787;Laerm;29409;49.306;8.500;2023-07-24T01:01:12;39.63;34.69;41.82;;
43787;Laerm;29409;49.306;8.500;2023-07-24T01:02:13;39.65;34.31;41.96;;
43787;Laerm;29409;49.306;8.500;2023-07-24T01:03:13;39.50;35.36;42.22;;
43787;Laerm;29409;49.306;8.500;2023-07-24T01:04:14;39.76;35.36;42.82;;
43787;Laerm;29409;49.306;8.500;2023-07-24T01:05:15;40.52;36.20;47.14;;
43787;Laerm;29409;49.306;8.500;2023-07-24T01:06:16;42.61;36.91;64.65;;
43787;Laerm;29409;49.306;8.500;2023-07-24T01:07:16;39.92;35.66;55.11;;
43787;Laerm;29409;49.306;8.500;2023-07-24T01:08:17;39.34;33.90;53.93;;
43787;Laerm;29409;49.306;8.500;2023-07-24T01:09:17;39.24;35.04;41.89;;
43787;Laerm;29409;49.306;8.500;2023-07-24T01:10:17;39.39;35.04;42.35;;
43787;Laerm;29409;49.306;8.500;2023-07-24T01:11:19;39.57;36.45;41.96;;
43787;Laerm;29409;49.306;8.500;2023-07-24T01:12:22;40.10;36.45;43.09;;
43787;Laerm;29409;49.306;8.500;2023-07-24T01:13:27;39.59;35.94;42.59;;
43787;Laerm;29409;49.306;8.500;2023-07-24T01:14:41;40.00;35.66;43.14;;
43787;Laerm;29409;49.306;8.500;2023-07-24T01:16:04;39.78;35.36;42.53;;
43787;Laerm;29409;49.306;8.500;2023-07-24T01:17:07;39.11;34.69;41.82;;
43787;Laerm;29409;49.306;8.500;2023-07-24T01:18:09;38.60;35.01;41.38;;
43787;Laerm;29409;49.306;8.500;2023-07-24T01:19:12;39.23;30.89;42.03;;
43787;Laerm;29409;49.306;8.500;2023-07-24T01:20:12;38.65;33.44;41.46;;
43787;Laerm;29409;49.306;8.500;2023-07-24T01:21:15;39.58;35.01;48.92;;
43787;Laerm;29409;49.306;8.500;2023-07-24T01:24:33;38.87;33.90;41.61;;
43787;Laerm;29409;49.306;8.500;2023-07-24T01:25:43;38.86;33.90;41.46;;
43787;Laerm;29409;49.306;8.500;2023-07-24T01:26:43;38.86;34.69;41.53;;
43787;Laerm;29409;49.306;8.500;2023-07-24T01:27:44;38.65;32.35;41.75;;
43787;Laerm;29409;49.306;8.500;2023-07-24T01:28:45;38.74;33.90;41.38;;
43787;Laerm;29409;49.306;8.500;2023-07-24T01:29:46;38.71;35.04;41.30;;
43787;Laerm;29409;49.306;8.500;2023-07-24T01:30:47;41.30;34.31;50.66;;
43787;Laerm;29409;49.306;8.500;2023-07-24T01:31:47;38.83;35.04;41.61;;
43787;Laerm;29409;49.306;8.500;2023-07-24T01:32:47;43.11;34.69;50.58;;
43787;Laerm;29409;49.306;8.500;2023-07-24T01:33:48;39.16;35.36;41.61;;
43787;Laerm;29409;49.306;8.500;2023-07-24T01:34:48;42.76;35.94;56.56;;
43787;Laerm;29409;49.306;8.500;2023-07-24T01:35:50;39.79;35.04;42.76;;
43787;Laerm;29409;49.306;8.500;2023-07-24T01:36:51;39.61;35.36;42.65;;
43787;Laerm;29409;49.306;8.500;2023-07-24T01:37:51;39.37;35.36;42.35;;
43787;Laerm;29409;49.306;8.500;2023-07-24T01:38:52;39.81;36.45;42.98;;
43787;Laerm;29409;49.306;8.500;2023-07-24T01:39:53;39.87;35.94;42.71;;
43787;Laerm;29409;49.306;8.500;2023-07-24T01:40:54;40.24;35.66;43.09;;
43787;Laerm;29409;49.306;8.500;2023-07-24T01:41:55;40.85;37.32;43.29;;
43787;Laerm;29409;49.306;8.500;2023-07-24T01:42:55;39.94;36.20;42.71;;
43787;Laerm;29409;49.306;8.500;2023-07-24T01:43:58;40.10;36.45;42.41;;
43787;Laerm;29409;49.306;8.500;2023-07-24T01:44:58;40.14;36.91;42.82;;
43787;Laerm;29409;49.306;8.500;2023-07-24T01:45:59;40.35;36.45;42.90;;
43787;Laerm;29409;49.306;8.500;2023-07-24T01:46:59;40.71;36.45;44.90;;
43787;Laerm;29409;49.306;8.500;2023-07-24T01:47:59;40.29;37.32;42.65;;
43787;Laerm;29409;49.306;8.500;2023-07-24T01:48:59;40.50;36.45;42.76;;
43787;Laerm;29409;49.306;8.500;2023-07-24T01:50:00;41.14;36.91;43.81;;
43787;Laerm;29409;49.306;8.500;2023-07-24T01:51:00;40.61;37.12;43.63;;
43787;Laerm;29409;49.306;8.500;2023-07-24T01:52:00;40.12;36.45;42.59;;
43787;Laerm;29409;49.306;8.500;2023-07-24T01:53:01;40.23;36.20;42.65;;
43787;Laerm;29409;49.306;8.500;2023-07-24T01:54:01;39.91;35.66;42.53;;
43787;Laerm;29409;49.306;8.500;2023-07-24T01:55:01;39.57;35.04;41.82;;
43787;Laerm;29409;49.306;8.500;2023-07-24T01:56:02;40.01;35.94;43.77;;
43787;Laerm;29409;49.306;8.500;2023-07-24T01:57:02;40.15;36.20;43.72;;
43787;Laerm;29409;49.306;8.500;2023-07-24T01:58:02;39.04;33.90;41.82;;
43787;Laerm;29409;49.306;8.500;2023-07-24T01:59:02;39.83;36.45;42.16;;
43787;Laerm;29409;49.306;8.500;2023-07-24T02:00:03;39.55;35.66;41.89;;
43787;Laerm;29409;49.306;8.500;2023-07-24T02:01:03;39.58;35.04;42.09;;
43787;Laerm;29409;49.306;8.500;2023-07-24T02:02:03;40.22;36.69;42.76;;
43787;Laerm;29409;49.306;8.500;2023-07-24T02:03:04;39.88;35.66;43.68;;
43787;Laerm;29409;49.306;8.500;2023-07-24T02:04:05;40.09;35.94;44.39;;
43787;Laerm;29409;49.306;8.500;2023-07-24T02:05:05;39.55;35.66;41.75;;
43787;Laerm;29409;49.306;8.500;2023-07-24T02:06:06;39.53;36.45;41.89;;
43787;Laerm;29409;49.306;8.500;2023-07-24T02:07:06;39.52;35.36;41.75;;
43787;Laerm;29409;49.306;8.500;2023-07-24T02:08:06;39.02;35.36;42.29;;
43787;Laerm;29409;49.306;8.500;2023-07-24T02:09:06;39.17;34.69;42.98;;
43787;Laerm;29409;49.306;8.500;2023-07-24T02:10:07;39.24;34.69;44.47;;
43787;Laerm;29409;49.306;8.500;2023-07-24T02:11:07;39.06;35.04;41.75;;
43787;Laerm;29409;49.306;8.500;2023-07-24T02:12:07;39.66;34.31;43.68;;
43787;Laerm;29409;49.306;8.500;2023-07-24T02:13:08;39.56;36.45;42.53;;
43787;Laerm;29409;49.306;8.500;2023-07-24T02:14:09;39.21;33.44;41.89;;
43787;Laerm;29409;49.306;8.500;2023-07-24T02:15:09;39.54;33.55;42.09;;
43787;Laerm;29409;49.306;8.500;2023-07-24T02:16:10;39.48;33.97;41.89;;
43787;Laerm;29409;49.306;8.500;2023-07-24T02:17:11;39.00;35.04;41.89;;
43787;Laerm;29409;49.306;8.500;2023-07-24T02:18:11;39.10;35.36;41.68;;
43787;Laerm;29409;49.306;8.500;2023-07-24T02:19:11;39.54;35.04;45.94;;
43787;Laerm;29409;49.306;8.500;2023-07-24T02:20:11;39.66;35.04;43.54;;
43787;Laerm;29409;49.306;8.500;2023-07-24T02:21:12;39.71;35.04;44.73;;
43787;Laerm;29409;49.306;8.500;2023-07-24T02:22:12;39.45;33.97;44.73;;
43787;Laerm;29409;49.306;8.500;2023-07-24T02:23:12;39.19;35.66;43.58;;
43787;Laerm;29409;49.306;8.500;2023-07-24T02:24:13;40.27;36.69;46.62;;
43787;Laerm;29409;49.306;8.500;2023-07-24T02:25:13;39.64;34.69;42.22;;
43787;Laerm;29409;49.306;8.500;2023-07-24T02:26:13;39.36;35.66;42.16;;
43787;Laerm;29409;49.306;8.500;2023-07-24T02:27:24;39.35;35.36;42.00;;
43787;Laerm;29409;49.306;8.500;2023-07-24T02:28:24;39.38;35.36;41.75;;
43787;Laerm;29409;49.306;8.500;2023-07-24T02:29:24;39.31;34.31;41.68;;
43787;Laerm;29409;49.306;8.500;2023-07-24T02:30:25;38.83;35.36;41.38;;
43787;Laerm;29409;49.306;8.500;2023-07-24T02:31:25;38.88;33.90;41.75;;
43787;Laerm;29409;49.306;8.500;2023-07-24T02:32:25;38.84;34.69;41.14;;
43787;Laerm;29409;49.306;8.500;2023-07-24T02:33:26;39.49;35.36;43.44;;
43787;Laerm;29409;49.306;8.500;2023-07-24T02:34:26;39.21;35.36;41.89;;
43787;Laerm;29409;49.306;8.500;2023-07-24T02:35:28;39.34;35.66;41.75;;
43787;Laerm;29409;49.306;8.500;2023-07-24T02:36:28;39.76;36.20;42.82;;
43787;Laerm;29409;49.306;8.500;2023-07-24T02:37:28;40.20;36.91;43.54;;
43787;Laerm;29409;49.306;8.500;2023-07-24T02:38:29;39.24;35.66;42.53;;
43787;Laerm;29409;49.306;8.500;2023-07-24T02:39:29;39.03;35.04;41.75;;
43787;Laerm;29409;49.306;8.500;2023-07-24T02:40:29;39.76;35.01;42.35;;
43787;Laerm;29409;49.306;8.500;2023-07-24T02:41:29;39.53;34.69;42.19;;
43787;Laerm;29409;49.306;8.500;2023-07-24T02:42:30;40.30;35.66;44.35;;
43787;Laerm;29409;49.306;8.500;2023-07-24T02:43:30;39.76;36.45;42.03;;
43787;Laerm;29409;49.306;8.500;2023-07-24T02:44:30;40.51;35.04;45.17;;
43787;Laerm;29409;49.306;8.500;2023-07-24T02:45:36;40.33;36.69;43.72;;
43787;Laerm;29409;49.306;8.500;2023-07-24T02:46:36;40.56;36.20;45.75;;
43787;Laerm;29409;49.306;8.500;2023-07-24T02:47:37;39.79;36.45;42.09;;
43787;Laerm;29409;49.306;8.500;2023-07-24T02:48:37;39.47;35.66;42.41;;
43787;Laerm;29409;49.306;8.500;2023-07-24T02:49:38;39.99;35.04;43.34;;
43787;Laerm;29409;49.306;8.500;2023-07-24T02:50:38;41.70;36.45;49.69;;
43787;Laerm;29409;49.306;8.500;2023-07-24T02:51:38;39.22;35.36;41.68;;
43787;Laerm;29409;49.306;8.500;2023-07-24T02:52:38;39.69;36.69;43.28;;
43787;Laerm;29409;49.306;8.500;2023-07-24T02:53:38;39.65;35.66;42.41;;
43787;Laerm;29409;49.306;8.500;2023-07-24T02:54:39;40.27;35.66;44.31;;
43787;Laerm;29409;49.306;8.500;2023-07-24T02:55:41;39.81;36.20;42.22;;
43787;Laerm;29409;49.306;8.500;2023-07-24T02:56:42;40.65;35.94;46.69;;
43787;Laerm;29409;49.306;8.500;2023-07-24T02:57:42;39.88;37.12;43.39;;
43787;Laerm;29409;49.306;8.500;2023-07-24T02:58:42;40.25;34.31;43.34;;
43787;Laerm;29409;49.306;8.500;2023-07-24T02:59:42;39.75;35.36;42.29;;
43787;Laerm;29409;49.306;8.500;2023-07-24T03:00:42;39.91;35.94;44.65;;
43787;Laerm;29409;49.306;8.500;2023-07-24T03:01:43;40.44;36.45;46.20;;
43787;Laerm;29409;49.306;8.500;2023-07-24T03:02:43;39.78;36.45;42.35;;
43787;Laerm;29409;49.306;8.500;2023-07-24T03:03:43;40.35;35.94;46.59;;
43787;Laerm;29409;49.306;8.500;2023-07-24T03:04:43;39.57;35.94;42.03;;
43787;Laerm;29409;49.306;8.500;2023-07-24T03:05:44;40.95;34.69;50.46;;
43787;Laerm;29409;49.306;8.500;2023-07-24T03:06:44;40.05;36.20;43.60;;
43787;Laerm;29409;49.306;8.500;2023-07-24T03:07:44;40.91;34.69;45.39;;
43787;Laerm;29409;49.306;8.500;2023-07-24T03:08:44;40.42;37.32;42.71;;
43787;Laerm;29409;49.306;8.500;2023-07-24T03:09:45;41.83;38.02;46.95;;
43787;Laerm;29409;49.306;8.500;2023-07-24T03:10:45;42.48;38.21;45.27;;
43787;Laerm;29409;49.306;8.500;2023-07-24T03:11:45;41.10;37.88;44.94;;
43787;Laerm;29409;49.306;8.500;2023-07-24T03:12:45;41.81;38.05;45.42;;
43787;Laerm;29409;49.306;8.500;2023-07-24T03:13:46;41.99;38.52;46.93;;
43787;Laerm;29409;49.306;8.500;2023-07-24T03:14:46;41.61;38.81;45.97;;
43787;Laerm;29409;49.306;8.500;2023-07-24T03:15:56;46.17;38.52;60.62;;
43787;Laerm;29409;49.306;8.500;2023-07-24T03:16:57;42.10;37.88;45.72;;
43787;Laerm;29409;49.306;8.500;2023-07-24T03:17:57;40.77;37.88;44.83;;
43787;Laerm;29409;49.306;8.500;2023-07-24T03:18:58;41.04;37.87;46.02;;
43787;Laerm;29409;49.306;8.500;2023-07-24T03:19:58;41.66;36.69;48.13;;
43787;Laerm;29409;49.306;8.500;2023-07-24T03:20:59;40.45;37.32;44.07;;
43787;Laerm;29409;49.306;8.500;2023-07-24T03:21:59;41.03;38.05;43.77;;
43787;Laerm;29409;49.306;8.500;2023-07-24T03:22:59;41.86;37.70;47.18;;
43787;Laerm;29409;49.306;8.500;2023-07-24T03:23:59;41.96;38.87;45.17;;
43787;Laerm;29409;49.306;8.500;2023-07-24T03:25:00;41.84;39.08;43.77;;
43787;Laerm;29409;49.306;8.500;2023-07-24T03:26:00;41.76;37.88;44.90;;
43787;Laerm;29409;49.306;8.500;2023-07-24T03:27:00;42.67;38.95;45.66;;
43787;Laerm;29409;49.306;8.500;2023-07-24T03:28:01;44.65;40.53;51.90;;
43787;Laerm;29409;49.306;8.500;2023-07-24T03:29:02;42.20;39.46;45.86;;
43787;Laerm;29409;49.306;8.500;2023-07-24T03:30:02;41.47;38.05;45.33;;
43787;Laerm;29409;49.306;8.500;2023-07-24T03:31:03;41.46;37.17;46.66;;
43787;Laerm;29409;49.306;8.500;2023-07-24T03:32:03;40.66;37.12;46.76;;
43787;Laerm;29409;49.306;8.500;2023-07-24T03:33:04;41.07;37.88;47.44;;
43787;Laerm;29409;49.306;8.500;2023-07-24T03:34:04;42.26;38.81;46.78;;
43787;Laerm;29409;49.306;8.500;2023-07-24T03:35:05;42.03;38.52;44.97;;
43787;Laerm;29409;49.306;8.500;2023-07-24T03:36:06;41.58;38.05;50.22;;
43787;Laerm;29409;49.306;8.500;2023-07-24T03:37:07;43.50;38.67;49.82;;
43787;Laerm;29409;49.306;8.500;2023-07-24T03:38:07;41.53;37.88;45.99;;
43787;Laerm;29409;49.306;8.500;2023-07-24T03:39:08;47.42;38.21;56.82;;
43787;Laerm;29409;49.306;8.500;2023-07-24T03:40:09;44.97;39.81;60.60;;
43787;Laerm;29409;49.306;8.500;2023-07-24T03:41:09;41.47;38.21;47.44;;
43787;Laerm;29409;49.306;8.500;2023-07-24T03:42:10;43.30;38.81;51.21;;
43787;Laerm;29409;49.306;8.500;2023-07-24T03:43:12;40.75;37.32;44.47;;
43787;Laerm;29409;49.306;8.500;2023-07-24T03:44:13;41.97;38.37;46.89;;
43787;Laerm;29409;49.306;8.500;2023-07-24T03:45:13;41.59;38.05;45.14;;
43787;Laerm;29409;49.306;8.500;2023-07-24T03:46:13;40.86;37.70;45.11;;
43787;Laerm;29409;49.306;8.500;2023-07-24T03:47:13;40.86;37.52;45.62;;
43787;Laerm;29409;49.306;8.500;2023-07-24T03:48:14;41.46;38.21;46.62;;
43787;Laerm;29409;49.306;8.500;2023-07-24T03:49:14;41.71;38.37;48.91;;
43787;Laerm;29409;49.306;8.500;2023-07-24T03:50:14;41.15;38.37;44.35;;
43787;Laerm;29409;49.306;8.500;2023-07-24T03:51:14;41.80;38.95;47.93;;
43787;Laerm;29409;49.306;8.500;2023-07-24T03:52:15;49.52;37.32;65.78;;
43787;Laerm;29409;49.306;8.500;2023-07-24T03:53:15;43.17;38.81;48.64;;
43787;Laerm;29409;49.306;8.500;2023-07-24T03:54:15;41.70;37.70;46.38;;
43787;Laerm;29409;49.306;8.500;2023-07-24T03:55:15;41.05;36.91;48.42;;
43787;Laerm;29409;49.306;8.500;2023-07-24T03:56:16;41.47;37.53;46.73;;
43787;Laerm;29409;49.306;8.500;2023-07-24T03:57:16;41.01;37.88;44.51;;
43787;Laerm;29409;49.306;8.500;2023-07-24T03:58:16;42.29;37.52;47.93;;
43787;Laerm;29409;49.306;8.500;2023-07-24T03:59:17;43.12;38.95;47.02;;
43787;Laerm;29409;49.306;8.500;2023-07-24T04:00:17;48.10;38.47;64.19;;
43787;Laerm;29409;49.306;8.500;2023-07-24T04:01:18;41.35;37.88;48.63;;
43787;Laerm;29409;49.306;8.500;2023-07-24T04:02:19;42.93;39.21;49.14;;
43787;Laerm;29409;49.306;8.500;2023-07-24T04:03:19;41.97;39.08;51.67;;
43787;Laerm;29409;49.306;8.500;2023-07-24T04:04:19;41.89;38.05;46.76;;
43787;Laerm;29409;49.306;8.500;2023-07-24T04:05:20;43.16;38.95;52.31;;
43787;Laerm;29409;49.306;8.500;2023-07-24T04:06:20;42.63;39.08;45.83;;
43787;Laerm;29409;49.306;8.500;2023-07-24T04:07:20;41.84;38.37;44.76;;
43787;Laerm;29409;49.306;8.500;2023-07-24T04:08:20;43.12;37.88;52.32;;
43787;Laerm;29409;49.306;8.500;2023-07-24T04:09:21;42.93;36.69;54.53;;
43787;Laerm;29409;49.306;8.500;2023-07-24T04:10:21;41.66;37.12;55.43;;
43787;Laerm;29409;49.306;8.500;2023-07-24T04:11:21;43.24;38.02;60.64;;
43787;Laerm;29409;49.306;8.500;2023-07-24T04:12:21;45.49;40.03;52.83;;
43787;Laerm;29409;49.306;8.500;2023-07-24T04:13:32;43.50;40.80;49.29;;
43787;Laerm;29409;49.306;8.500;2023-07-24T04:14:32;42.09;39.34;46.50;;
43787;Laerm;29409;49.306;8.500;2023-07-24T04:15:32;44.85;37.88;54.89;;
43787;Laerm;29409;49.306;8.500;2023-07-24T04:16:32;47.44;39.34;56.16;;
43787;Laerm;29409;49.306;8.500;2023-07-24T04:17:33;43.58;38.52;55.04;;
43787;Laerm;29409;49.306;8.500;2023-07-24T04:18:33;42.20;38.81;47.52;;
43787;Laerm;29409;49.306;8.500;2023-07-24T04:19:34;43.75;38.05;56.22;;
43787;Laerm;29409;49.306;8.500;2023-07-24T04:20:34;41.19;36.69;46.50;;
43787;Laerm;29409;49.306;8.500;2023-07-24T04:21:34;43.26;37.70;56.68;;
43787;Laerm;29409;49.306;8.500;2023-07-24T04:22:34;43.56;38.37;55.72;;
43787;Laerm;29409;49.306;8.500;2023-07-24T04:23:35;44.09;38.37;57.51;;
43787;Laerm;29409;49.306;8.500;2023-07-24T04:24:35;44.46;38.52;56.82;;
43787;Laerm;29409;49.306;8.500;2023-07-24T04:25:35;47.83;39.34;58.15;;
43787;Laerm;29409;49.306;8.500;2023-07-24T04:26:35;43.02;39.34;49.14;;
43787;Laerm;29409;49.306;8.500;2023-07-24T04:27:36;42.51;39.46;48.20;;
43787;Laerm;29409;49.306;8.500;2023-07-24T04:28:36;42.75;39.08;49.20;;
43787;Laerm;29409;49.306;8.500;2023-07-24T04:29:36;42.26;38.52;48.74;;
43787;Laerm;29409;49.306;8.500;2023-07-24T04:30:37;43.63;38.21;51.68;;
43787;Laerm;29409;49.306;8.500;2023-07-24T04:31:37;41.58;38.05;47.18;;
43787;Laerm;29409;49.306;8.500;2023-07-24T04:32:37;42.62;39.08;48.29;;
43787;Laerm;29409;49.306;8.500;2023-07-24T04:33:38;48.15;38.52;59.86;;
43787;Laerm;29409;49.306;8.500;2023-07-24T04:34:38;41.81;38.67;48.08;;
43787;Laerm;29409;49.306;8.500;2023-07-24T04:35:38;41.72;37.88;47.54;;
43787;Laerm;29409;49.306;8.500;2023-07-24T04:36:39;41.55;38.05;48.03;;
43787;Laerm;29409;49.306;8.500;2023-07-24T04:37:39;42.50;38.81;46.55;;
43787;Laerm;29409;49.306;8.500;2023-07-24T04:38:40;42.21;39.21;47.74;;
43787;Laerm;29409;49.306;8.500;2023-07-24T04:39:41;45.33;40.43;70.30;;
43787;Laerm;29409;49.306;8.500;2023-07-24T04:40:43;43.44;39.70;50.05;;
43787;Laerm;29409;49.306;8.500;2023-07-24T04:41:43;42.65;38.05;49.80;;
43787;Laerm;29409;49.306;8.500;2023-07-24T04:42:43;44.22;38.95;53.55;;
43787;Laerm;29409;49.306;8.500;2023-07-24T04:43:44;41.98;38.95;50.12;;
43787;Laerm;29409;49.306;8.500;2023-07-24T04:44:44;41.41;38.47;48.54;;
43787;Laerm;29409;49.306;8.500;2023-07-24T04:45:44;41.71;38.67;45.45;;
43787;Laerm;29409;49.306;8.500;2023-07-24T04:46:45;42.71;38.81;50.70;;
43787;Laerm;29409;49.306;8.500;2023-07-24T04:47:45;41.74;37.88;46.15;;
43787;Laerm;29409;49.306;8.500;2023-07-24T04:48:45;42.13;39.21;47.54;;
43787;Laerm;29409;49.306;8.500;2023-07-24T04:49:45;43.96;38.81;53.38;;
43787;Laerm;29409;49.306;8.500;2023-07-24T04:50:46;42.40;38.95;47.50;;
43787;Laerm;29409;49.306;8.500;2023-07-24T04:51:46;43.11;39.70;51.99;;
43787;Laerm;29409;49.306;8.500;2023-07-24T04:52:46;46.66;38.95;62.36;;
43787;Laerm;29409;49.306;8.500;2023-07-24T04:53:46;41.83;38.05;48.16;;
43787;Laerm;29409;49.306;8.500;2023-07-24T04:54:47;41.84;38.05;48.16;;
43787;Laerm;29409;49.306;8.500;2023-07-24T04:55:47;42.07;38.52;48.98;;
43787;Laerm;29409;49.306;8.500;2023-07-24T04:56:47;41.96;38.05;45.77;;
43787;Laerm;29409;49.306;8.500;2023-07-24T04:57:48;42.03;38.05;46.64;;
43787;Laerm;29409;49.306;8.500;2023-07-24T04:58:48;42.39;38.21;48.08;;
43787;Laerm;29409;49.306;8.500;2023-07-24T04:59:48;44.12;39.08;51.85;;
43787;Laerm;29409;49.306;8.500;2023-07-24T05:00:49;42.04;38.81;50.22;;
43787;Laerm;29409;49.306;8.500;2023-07-24T05:01:49;43.25;37.52;52.95;;
43787;Laerm;29409;49.306;8.500;2023-07-24T05:02:49;42.93;38.52;48.73;;
43787;Laerm;29409;49.306;8.500;2023-07-24T05:03:50;44.04;40.71;50.54;;
43787;Laerm;29409;49.306;8.500;2023-07-24T05:04:50;42.58;38.37;47.98;;
43787;Laerm;29409;49.306;8.500;2023-07-24T05:05:56;43.78;38.81;51.17;;
43787;Laerm;29409;49.306;8.500;2023-07-24T05:06:56;43.12;38.81;54.20;;
43787;Laerm;29409;49.306;8.500;2023-07-24T05:07:57;45.56;38.95;61.12;;
43787;Laerm;29409;49.306;8.500;2023-07-24T05:08:57;42.21;38.52;47.46;;
43787;Laerm;29409;49.306;8.500;2023-07-24T05:09:57;42.13;37.70;66.01;;
43787;Laerm;29409;49.306;8.500;2023-07-24T05:10:57;42.29;38.21;48.55;;
43787;Laerm;29409;49.306;8.500;2023-07-24T05:11:58;42.15;38.05;51.66;;
43787;Laerm;29409;49.306;8.500;2023-07-24T05:12:59;41.40;38.52;44.65;;
43787;Laerm;29409;49.306;8.500;2023-07-24T05:14:01;41.50;38.21;45.69;;
43787;Laerm;29409;49.306;8.500;2023-07-24T05:15:01;41.90;38.81;47.72;;
43787;Laerm;29409;49.306;8.500;2023-07-24T05:16:02;41.37;38.05;45.39;;
43787;Laerm;29409;49.306;8.500;2023-07-24T05:17:02;42.61;38.81;52.44;;
43787;Laerm;29409;49.306;8.500;2023-07-24T05:18:03;41.36;38.05;46.82;;
43787;Laerm;29409;49.306;8.500;2023-07-24T05:19:03;42.95;39.21;55.50;;
43787;Laerm;29409;49.306;8.500;2023-07-24T05:20:04;44.19;38.52;53.28;;
43787;Laerm;29409;49.306;8.500;2023-07-24T05:21:04;42.06;38.52;49.98;;
43787;Laerm;29409;49.306;8.500;2023-07-24T05:22:05;42.42;38.52;47.10;;
43787;Laerm;29409;49.306;8.500;2023-07-24T05:23:05;41.16;38.18;45.45;;
43787;Laerm;29409;49.306;8.500;2023-07-24T05:24:06;45.10;39.46;53.25;;
43787;Laerm;29409;49.306;8.500;2023-07-24T05:25:06;45.02;38.67;55.16;;
43787;Laerm;29409;49.306;8.500;2023-07-24T05:26:06;42.19;38.67;47.18;;
43787;Laerm;29409;49.306;8.500;2023-07-24T05:27:07;46.30;39.92;59.73;;
43787;Laerm;29409;49.306;8.500;2023-07-24T05:28:07;43.10;39.70;49.14;;
43787;Laerm;29409;49.306;8.500;2023-07-24T05:29:08;41.09;37.12;52.02;;
43787;Laerm;29409;49.306;8.500;2023-07-24T05:30:08;42.32;38.52;48.12;;
43787;Laerm;29409;49.306;8.500;2023-07-24T05:31:08;42.80;37.70;52.23;;
43787;Laerm;29409;49.306;8.500;2023-07-24T05:32:08;41.89;38.05;59.85;;
43787;Laerm;29409;49.306;8.500;2023-07-24T05:33:09;43.72;39.08;52.51;;
43787;Laerm;29409;49.306;8.500;2023-07-24T05:34:09;44.65;38.95;54.39;;
43787;Laerm;29409;49.306;8.500;2023-07-24T05:35:09;44.82;38.87;60.31;;
43787;Laerm;29409;49.306;8.500;2023-07-24T05:36:10;43.53;38.37;52.50;;
43787;Laerm;29409;49.306;8.500;2023-07-24T05:37:10;43.50;38.21;63.86;;
43787;Laerm;29409;49.306;8.500;2023-07-24T05:38:10;45.54;38.21;57.76;;
43787;Laerm;29409;49.306;8.500;2023-07-24T05:39:10;42.54;39.46;52.27;;
43787;Laerm;29409;49.306;8.500;2023-07-24T05:40:11;45.14;40.62;63.58;;
43787;Laerm;29409;49.306;8.500;2023-07-24T05:41:11;45.94;40.13;57.86;;
43787;Laerm;29409;49.306;8.500;2023-07-24T05:42:11;44.57;39.08;54.03;;